Time;durP1;ratioP1;P1;durP2;ratioP2;P2;SDS_P1;SDS_P2;PMS_P1;PMS_P2;Temp;Humidity;BMP_temperature;BMP_pressure;BME280_temperature;BME280_humidity;BME280_pressure;Samples;Min_cycle;Max_cycle;Signal;HPM_P1;HPM_P2
2021/08/27 00:01:12;;;;;;;0.70;0.70;;;13.40;99.90;;;;;;5034608;28;20714;-78
2021/08/27 00:03:37;;;;;;;1.20;1.05;;;13.40;99.90;;;;;;5031901;28;20219;-78
2021/08/27 00:06:03;;;;;;;2.65;1.20;;;13.40;99.90;;;;;;5034641;28;20213;-79
2021/08/27 00:08:29;;;;;;;0.50;0.50;;;13.30;99.90;;;;;;5034837;28;20198;-78
2021/08/27 00:10:54;;;;;;;0.50;0.50;;;13.40;99.90;;;;;;5052698;28;20190;-78
2021/08/27 00:13:20;;;;;;;22.58;1.00;;;13.40;99.90;;;;;;5034567;28;20227;-79
2021/08/27 00:15:46;;;;;;;0.57;0.57;;;13.40;99.90;;;;;;5034569;28;20634;-78
2021/08/27 00:18:12;;;;;;;0.60;0.60;;;13.40;99.90;;;;;;5033405;28;20205;-77
2021/08/27 00:20:38;;;;;;;0.90;0.73;;;13.30;99.90;;;;;;5034251;28;20702;-79
2021/08/27 00:23:05;;;;;;;0.55;0.55;;;13.30;99.90;;;;;;5052511;28;20566;-78
2021/08/27 00:25:31;;;;;;;0.50;0.50;;;13.30;99.90;;;;;;5034370;28;20687;-78
2021/08/27 00:27:56;;;;;;;0.50;0.50;;;13.20;99.90;;;;;;5025845;28;20259;-78
2021/08/27 00:30:22;;;;;;;0.70;0.70;;;13.20;99.90;;;;;;5028226;28;20189;-79
2021/08/27 00:32:48;;;;;;;0.60;0.60;;;13.20;99.90;;;;;;5026264;28;20669;-78
2021/08/27 00:35:14;;;;;;;0.40;0.40;;;13.20;99.90;;;;;;5022616;28;20206;-79
2021/08/27 00:37:39;;;;;;;0.50;0.50;;;13.10;99.90;;;;;;5034233;28;20223;-78
2021/08/27 00:40:06;;;;;;;0.50;0.50;;;13.20;99.90;;;;;;5033342;28;20198;-79
2021/08/27 00:42:32;;;;;;;0.50;0.50;;;13.10;99.90;;;;;;5049575;28;20205;-79
2021/08/27 00:44:57;;;;;;;0.57;0.57;;;13.10;99.90;;;;;;5052073;28;20235;-78
2021/08/27 00:47:23;;;;;;;3.55;0.80;;;13.20;99.90;;;;;;5032418;28;20291;-79
2021/08/27 00:49:49;;;;;;;0.52;0.52;;;13.10;99.90;;;;;;5033005;28;20193;-80
2021/08/27 00:52:15;;;;;;;0.73;0.73;;;13.10;99.90;;;;;;5052166;28;20193;-80
2021/08/27 00:54:47;;;;;;;0.75;0.75;;;13.10;99.90;;;;;;5036636;28;20210;-79
2021/08/27 00:57:13;;;;;;;0.70;0.70;;;13.10;99.90;;;;;;5037393;28;20633;-79
2021/08/27 00:59:39;;;;;;;0.70;0.70;;;13.10;99.90;;;;;;5036178;28;20216;-79
2021/08/27 01:02:06;;;;;;;0.60;0.60;;;13.10;99.90;;;;;;5050560;28;20620;-81
2021/08/27 01:04:32;;;;;;;1.30;1.20;;;13.10;99.90;;;;;;5048729;22;20233;-68
2021/08/27 01:07:23;;;;;;;0.50;0.50;;;13.10;99.90;;;;;;5055041;28;20302;-68
2021/08/27 01:09:58;;;;;;;0.60;0.60;;;13.10;99.90;;;;;;5047802;28;20675;-68
2021/08/27 01:13:01;;;;;;;0.90;0.90;;;13.10;99.90;;;;;;5036909;28;20300;-69
2021/08/27 01:16:00;;;;;;;0.50;0.50;;;13.10;99.90;;;;;;5019450;28;20670;-69
2021/08/27 01:18:47;;;;;;;0.50;0.50;;;13.10;99.90;;;;;;5040523;28;20699;-68
2021/08/27 01:21:43;;;;;;;0.50;0.50;;;13.10;99.90;;;;;;5054682;28;20230;-67
2021/08/27 01:24:11;;;;;;;0.73;0.73;;;13.00;99.90;;;;;;5054596;28;20307;-68
2021/08/27 01:26:59;;;;;;;0.50;0.50;;;13.10;99.90;;;;;;5036284;28;20205;-67
2021/08/27 01:30:02;;;;;;;0.50;0.50;;;12.90;99.90;;;;;;5046271;28;20208;-67
2021/08/27 01:32:59;;;;;;;0.60;0.60;;;12.90;99.90;;;;;;5029241;28;20217;-67
2021/08/27 01:35:29;;;;;;;0.60;0.60;;;12.90;99.90;;;;;;5054553;28;20204;-67
2021/08/27 01:37:56;;;;;;;0.70;0.70;;;12.90;99.90;;;;;;5054430;28;20210;-67
2021/08/27 01:40:23;;;;;;;0.60;0.60;;;12.90;99.90;;;;;;5054091;28;20668;-68
2021/08/27 01:42:50;;;;;;;0.68;0.68;;;12.90;99.90;;;;;;5054245;28;20206;-67
2021/08/27 01:45:17;;;;;;;0.50;0.50;;;12.90;99.90;;;;;;5054183;28;20212;-67
2021/08/27 01:47:44;;;;;;;0.60;0.60;;;12.90;99.90;;;;;;5036096;28;20741;-67
2021/08/27 01:50:12;;;;;;;0.80;0.80;;;12.90;99.90;;;;;;5054002;28;20197;-68
2021/08/27 01:52:39;;;;;;;0.50;0.50;;;12.90;99.90;;;;;;5034936;28;20236;-67
2021/08/27 01:55:07;;;;;;;0.98;0.88;;;12.90;99.90;;;;;;5054011;28;20203;-67
2021/08/27 01:57:35;;;;;;;0.95;0.90;;;13.00;99.90;;;;;;5053600;28;20220;-67
2021/08/27 02:00:04;;;;;;;0.75;0.75;;;13.00;99.90;;;;;;5053748;28;20193;-68
2021/08/27 02:02:31;;;;;;;0.73;0.73;;;13.00;99.90;;;;;;5048021;28;20297;-67
2021/08/27 02:05:01;;;;;;;0.68;0.68;;;13.00;99.90;;;;;;5053387;28;20312;-68
2021/08/27 02:07:27;;;;;;;0.60;0.60;;;13.00;99.90;;;;;;5053551;28;20209;-68
2021/08/27 02:09:55;;;;;;;0.60;0.60;;;12.90;99.90;;;;;;5053801;28;20215;-68
2021/08/27 02:12:21;;;;;;;0.90;0.90;;;12.90;99.90;;;;;;5053529;28;20225;-68
2021/08/27 02:14:50;;;;;;;0.60;0.60;;;12.90;99.90;;;;;;5035749;28;20206;-68
2021/08/27 02:17:16;;;;;;;0.85;0.85;;;12.90;99.90;;;;;;5053630;28;20205;-68
2021/08/27 02:19:43;;;;;;;0.47;0.47;;;12.90;99.90;;;;;;5035458;28;20214;-67
2021/08/27 02:22:14;;;;;;;0.60;0.60;;;12.90;99.90;;;;;;5053585;28;20197;-68
2021/08/27 02:24:58;;;;;;;0.88;0.88;;;12.90;99.90;;;;;;5034998;28;20210;-68
2021/08/27 02:27:24;;;;;;;0.50;0.50;;;12.90;99.90;;;;;;5036574;28;20671;-67
2021/08/27 02:29:54;;;;;;;0.60;0.60;;;12.90;99.90;;;;;;5053611;28;20202;-67
2021/08/27 02:32:21;;;;;;;1.13;1.00;;;12.90;99.90;;;;;;5052493;28;20298;-71
2021/08/27 02:34:48;;;;;;;0.50;0.50;;;12.90;99.90;;;;;;5053708;28;20202;-67
2021/08/27 02:37:17;;;;;;;0.70;0.70;;;13.00;99.90;;;;;;5053569;28;20210;-68
2021/08/27 02:39:43;;;;;;;0.50;0.50;;;13.00;99.90;;;;;;5034250;28;20213;-67
2021/08/27 02:42:09;;;;;;;0.63;0.63;;;13.10;99.90;;;;;;5053419;28;20217;-67
2021/08/27 02:44:35;;;;;;;0.47;0.47;;;13.10;99.90;;;;;;5052866;28;20214;-67
2021/08/27 02:47:01;;;;;;;0.50;0.50;;;13.10;99.90;;;;;;5053071;28;20207;-68
2021/08/27 02:49:27;;;;;;;1.10;1.10;;;13.10;99.90;;;;;;5053032;28;20206;-68
2021/08/27 02:52:05;;;;;;;0.80;0.80;;;13.10;99.90;;;;;;5053205;28;20206;-67
2021/08/27 02:54:50;;;;;;;0.68;0.68;;;13.10;99.90;;;;;;5052868;28;20201;-68
2021/08/27 02:57:17;;;;;;;0.85;0.77;;;13.00;99.90;;;;;;5053055;28;20201;-70
2021/08/27 02:59:43;;;;;;;0.60;0.60;;;13.10;99.90;;;;;;5052852;28;20209;-68
2021/08/27 03:02:15;;;;;;;2.25;1.08;;;13.00;99.90;;;;;;5044195;28;20292;-68
2021/08/27 03:04:49;;;;;;;0.50;0.50;;;13.00;99.90;;;;;;5048241;28;20233;-68
2021/08/27 03:07:19;;;;;;;0.68;0.68;;;12.90;99.90;;;;;;5034014;28;20201;-68
2021/08/27 03:09:54;;;;;;;0.68;0.68;;;13.00;99.90;;;;;;5052791;28;20623;-69
2021/08/27 03:12:27;;;;;;;0.50;0.50;;;13.00;99.90;;;;;;5052845;28;20207;-69
2021/08/27 03:14:57;;;;;;;0.50;0.50;;;13.00;99.90;;;;;;5045472;28;20293;-68
2021/08/27 03:17:26;;;;;;;0.50;0.50;;;13.10;99.90;;;;;;5032423;28;20248;-67
2021/08/27 03:20:09;;;;;;;0.52;0.52;;;13.10;99.90;;;;;;5052584;28;20205;-68
2021/08/27 03:22:44;;;;;;;0.50;0.50;;;13.10;99.90;;;;;;5052316;28;20209;-67
2021/08/27 03:25:12;;;;;;;0.52;0.52;;;13.10;99.90;;;;;;5052447;28;20213;-68
2021/08/27 03:27:45;;;;;;;0.93;0.93;;;13.20;99.90;;;;;;5033389;28;20217;-68
2021/08/27 03:30:15;;;;;;;0.50;0.50;;;13.20;99.90;;;;;;5034390;28;20557;-70
2021/08/27 03:32:46;;;;;;;0.57;0.57;;;13.20;99.90;;;;;;5033605;28;20368;-67
2021/08/27 03:35:17;;;;;;;1.05;0.88;;;13.20;99.90;;;;;;5052131;28;20209;-67
2021/08/27 03:37:43;;;;;;;0.63;0.57;;;13.30;99.90;;;;;;5034286;28;20209;-67
2021/08/27 03:40:10;;;;;;;0.50;0.50;;;13.30;99.90;;;;;;5052209;28;20602;-66
2021/08/27 03:42:38;;;;;;;0.70;0.70;;;13.30;99.90;;;;;;5052157;28;20209;-68
2021/08/27 03:45:05;;;;;;;0.65;0.65;;;13.30;99.90;;;;;;5052262;28;20237;-68
2021/08/27 03:47:31;;;;;;;0.55;0.55;;;13.30;99.90;;;;;;5052126;28;20640;-68
2021/08/27 03:49:57;;;;;;;0.73;0.73;;;13.40;99.90;;;;;;5034047;28;20194;-67
2021/08/27 03:52:24;;;;;;;1.92;0.60;;;13.40;99.90;;;;;;5033854;28;20667;-67
2021/08/27 03:54:50;;;;;;;0.50;0.50;;;13.40;99.90;;;;;;5051982;28;20209;-67
2021/08/27 03:57:17;;;;;;;0.50;0.50;;;13.40;99.90;;;;;;5051911;28;20229;-68
2021/08/27 03:59:46;;;;;;;0.55;0.55;;;13.40;99.90;;;;;;5051919;28;20259;-68
2021/08/27 04:02:13;;;;;;;0.60;0.60;;;13.40;99.90;;;;;;5034639;28;20343;-68
2021/08/27 04:04:39;;;;;;;0.50;0.50;;;13.40;99.90;;;;;;5051524;28;20757;-67
2021/08/27 04:07:05;;;;;;;0.90;0.77;;;13.40;99.90;;;;;;5051844;28;20206;-70
2021/08/27 04:09:34;;;;;;;0.60;0.60;;;13.40;99.90;;;;;;5034004;28;20232;-69
2021/08/27 04:12:03;;;;;;;0.77;0.77;;;13.40;99.90;;;;;;5046049;28;20206;-69
2021/08/27 04:14:29;;;;;;;0.50;0.50;;;13.40;99.90;;;;;;5050967;28;20259;-69
2021/08/27 04:16:55;;;;;;;2.80;0.63;;;13.40;99.90;;;;;;5051711;28;20227;-67
2021/08/27 04:19:21;;;;;;;0.63;0.63;;;13.40;99.90;;;;;;5033484;28;20232;-69
2021/08/27 04:21:47;;;;;;;1.15;1.05;;;13.40;99.90;;;;;;5051758;28;20648;-68
2021/08/27 04:24:13;;;;;;;0.75;0.75;;;13.40;99.90;;;;;;5051549;28;20284;-67
2021/08/27 04:26:39;;;;;;;0.60;0.60;;;13.40;99.90;;;;;;5051735;28;20602;-68
2021/08/27 04:29:05;;;;;;;0.80;0.80;;;13.40;99.90;;;;;;5036578;28;20197;-68
2021/08/27 04:31:31;;;;;;;0.70;0.70;;;13.40;99.90;;;;;;5058283;28;20292;-70
2021/08/27 04:33:56;;;;;;;0.57;0.57;;;13.50;99.90;;;;;;5058302;28;20676;-70
2021/08/27 04:36:22;;;;;;;0.60;0.60;;;13.50;99.90;;;;;;5058273;28;20304;-70
2021/08/27 04:38:50;;;;;;;0.50;0.50;;;13.50;99.90;;;;;;5040480;28;20212;-68
2021/08/27 04:41:16;;;;;;;0.82;0.82;;;13.50;99.90;;;;;;5038950;28;20299;-68
2021/08/27 04:43:42;;;;;;;0.50;0.50;;;13.50;99.90;;;;;;5039838;28;20220;-68
2021/08/27 04:46:11;;;;;;;0.60;0.60;;;13.50;99.90;;;;;;5057836;28;20296;-68
2021/08/27 04:48:37;;;;;;;1.35;0.60;;;13.40;99.90;;;;;;5057730;28;20276;-68
2021/08/27 04:51:03;;;;;;;0.50;0.50;;;13.50;99.90;;;;;;5057799;28;20201;-68
2021/08/27 04:53:28;;;;;;;2.30;0.88;;;13.40;99.90;;;;;;5057851;28;20212;-69
2021/08/27 04:55:54;;;;;;;0.60;0.60;;;13.50;99.90;;;;;;5040314;28;20201;-69
2021/08/27 04:58:22;;;;;;;0.50;0.50;;;13.50;99.90;;;;;;5039847;28;20684;-71
2021/08/27 05:00:48;;;;;;;0.68;0.68;;;13.40;99.90;;;;;;5040673;28;20508;-69
2021/08/27 05:03:14;;;;;;;0.70;0.70;;;13.50;99.90;;;;;;5057923;28;20213;-72
2021/08/27 05:05:39;;;;;;;0.50;0.50;;;13.50;99.90;;;;;;5022545;28;20233;-69
2021/08/27 05:08:05;;;;;;;0.50;0.50;;;13.50;99.90;;;;;;5058168;28;20201;-68
2021/08/27 05:10:31;;;;;;;1.13;1.02;;;13.50;99.90;;;;;;5057534;28;20221;-68
2021/08/27 05:12:56;;;;;;;6.80;1.30;;;13.50;99.90;;;;;;5058106;28;20193;-69
2021/08/27 05:15:22;;;;;;;0.60;0.60;;;13.60;99.90;;;;;;5057506;28;20683;-69
2021/08/27 05:17:48;;;;;;;0.60;0.60;;;13.60;99.90;;;;;;5039956;28;20258;-68
2021/08/27 05:20:13;;;;;;;0.43;0.43;;;13.60;99.90;;;;;;5057790;28;20288;-68
2021/08/27 05:22:39;;;;;;;0.60;0.60;;;13.60;99.90;;;;;;5038748;28;20216;-69
2021/08/27 05:25:05;;;;;;;0.70;0.70;;;13.60;99.90;;;;;;5057546;28;20217;-68
2021/08/27 05:27:34;;;;;;;1.45;0.95;;;13.60;99.90;;;;;;5057607;28;20229;-69
2021/08/27 05:30:00;;;;;;;1.20;1.10;;;13.60;99.90;;;;;;5057400;28;20199;-68
2021/08/27 05:32:27;;;;;;;1.42;1.33;;;13.70;99.90;;;;;;5057317;28;20674;-67
2021/08/27 05:34:52;;;;;;;0.68;0.68;;;13.70;99.90;;;;;;5057935;28;20201;-68
2021/08/27 05:37:18;;;;;;;0.82;0.82;;;13.70;99.90;;;;;;5057608;28;20212;-68
2021/08/27 05:39:44;;;;;;;0.60;0.60;;;13.70;99.90;;;;;;5056603;28;20224;-68
2021/08/27 05:42:09;;;;;;;0.50;0.50;;;13.80;99.90;;;;;;5035309;28;20730;-68
2021/08/27 05:44:35;;;;;;;2.53;1.40;;;13.80;99.90;;;;;;5054276;28;20722;-68
2021/08/27 05:47:01;;;;;;;0.60;0.60;;;13.80;99.90;;;;;;5054242;28;20260;-70
2021/08/27 05:49:28;;;;;;;0.50;0.50;;;13.80;99.90;;;;;;5054569;28;20668;-69
2021/08/27 05:51:53;;;;;;;0.60;0.60;;;13.80;99.90;;;;;;5054394;28;20210;-68
2021/08/27 05:54:19;;;;;;;0.52;0.52;;;13.80;99.90;;;;;;5054435;28;20296;-70
2021/08/27 05:56:45;;;;;;;0.75;0.75;;;13.90;99.90;;;;;;5054215;28;20197;-68
2021/08/27 05:59:11;;;;;;;0.60;0.60;;;13.90;99.90;;;;;;5054206;28;20194;-69
2021/08/27 06:01:37;;;;;;;0.55;0.55;;;13.90;99.90;;;;;;5053629;28;20196;-69
2021/08/27 06:04:03;;;;;;;0.57;0.57;;;14.00;99.90;;;;;;5044648;28;20278;-68
2021/08/27 06:06:28;;;;;;;0.50;0.50;;;14.00;99.90;;;;;;5053870;28;20209;-68
2021/08/27 06:08:54;;;;;;;2.80;1.05;;;14.00;99.90;;;;;;5053970;28;20240;-69
2021/08/27 06:11:20;;;;;;;0.47;0.47;;;14.00;99.90;;;;;;5053660;28;20707;-69
2021/08/27 06:13:45;;;;;;;0.63;0.63;;;14.10;99.90;;;;;;5034864;28;20202;-68
2021/08/27 06:16:11;;;;;;;0.50;0.50;;;14.10;99.90;;;;;;5053899;28;20208;-68
2021/08/27 06:18:37;;;;;;;0.50;0.50;;;14.10;99.90;;;;;;5053611;28;20259;-68
2021/08/27 06:21:02;;;;;;;0.60;0.60;;;14.10;99.90;;;;;;5053866;28;20285;-70
2021/08/27 06:23:28;;;;;;;0.73;0.73;;;14.10;99.90;;;;;;5053353;28;20209;-69
2021/08/27 06:25:54;;;;;;;0.50;0.50;;;14.10;99.90;;;;;;5053479;28;20213;-70
2021/08/27 06:28:19;;;;;;;0.52;0.52;;;14.10;99.90;;;;;;5053481;28;20197;-70
2021/08/27 06:30:45;;;;;;;0.55;0.55;;;14.10;99.90;;;;;;5053215;28;20197;-69
2021/08/27 06:33:11;;;;;;;0.50;0.50;;;14.10;99.90;;;;;;5035293;28;20659;-68
2021/08/27 06:35:37;;;;;;;0.50;0.50;;;14.10;99.90;;;;;;5035235;28;20200;-69
2021/08/27 06:40:48;;;;;;;0.55;0.55;;;14.20;99.90;;;;;;5037444;28;20237;-70
2021/08/27 06:43:14;;;;;;;2.40;1.10;;;14.20;99.90;;;;;;5053285;28;20201;-68
2021/08/27 06:45:40;;;;;;;1.40;1.30;;;14.20;99.90;;;;;;5053223;28;20682;-69
2021/08/27 06:48:06;;;;;;;0.50;0.50;;;14.20;99.90;;;;;;5054004;28;20202;-69
2021/08/27 06:50:32;;;;;;;0.47;0.47;;;14.30;99.90;;;;;;5045795;28;20212;-68
2021/08/27 06:52:58;;;;;;;0.50;0.50;;;14.30;99.90;;;;;;5052888;28;20205;-68
2021/08/27 06:55:23;;;;;;;0.75;0.70;;;14.30;99.90;;;;;;5052950;28;20668;-69
2021/08/27 06:57:49;;;;;;;0.70;0.70;;;14.30;99.90;;;;;;5034977;28;20209;-69
2021/08/27 07:00:15;;;;;;;1.08;0.98;;;14.30;99.90;;;;;;5051812;28;20209;-68
2021/08/27 07:02:43;;;;;;;0.82;0.75;;;14.30;99.90;;;;;;5052605;28;20288;-68
2021/08/27 07:05:09;;;;;;;0.50;0.50;;;14.30;99.90;;;;;;5033512;28;20229;-69
2021/08/27 07:07:35;;;;;;;0.60;0.60;;;14.30;99.90;;;;;;5052863;28;20292;-68
2021/08/27 07:10:01;;;;;;;3.03;0.80;;;14.30;99.90;;;;;;5052912;28;20269;-69
2021/08/27 07:12:27;;;;;;;0.50;0.50;;;14.30;99.90;;;;;;5045870;28;20273;-68
2021/08/27 07:14:53;;;;;;;0.70;0.60;;;14.30;99.90;;;;;;5052623;28;20293;-69
2021/08/27 07:17:20;;;;;;;0.50;0.50;;;14.30;99.90;;;;;;5052549;28;20315;-70
2021/08/27 07:19:48;;;;;;;0.73;0.73;;;14.30;99.90;;;;;;5052363;28;20201;-67
2021/08/27 07:22:13;;;;;;;0.55;0.55;;;14.30;99.90;;;;;;5033284;28;20201;-68
2021/08/27 07:24:39;;;;;;;0.60;0.60;;;14.20;99.90;;;;;;5052192;28;20288;-69
2021/08/27 07:27:05;;;;;;;0.60;0.60;;;14.20;99.90;;;;;;5052243;28;20204;-68
2021/08/27 07:29:31;;;;;;;0.65;0.65;;;14.10;99.90;;;;;;5052498;28;20292;-68
2021/08/27 07:31:57;;;;;;;0.52;0.52;;;14.20;99.90;;;;;;5052602;28;20220;-68
2021/08/27 07:34:22;;;;;;;0.50;0.50;;;14.20;99.90;;;;;;5034516;28;20221;-69
2021/08/27 07:36:48;;;;;;;0.73;0.73;;;14.20;99.90;;;;;;5052385;28;20289;-71
2021/08/27 07:39:14;;;;;;;0.40;0.40;;;14.20;99.90;;;;;;5053031;28;20201;-68
2021/08/27 07:41:40;;;;;;;0.70;0.70;;;14.20;99.90;;;;;;5052015;28;20205;-69
2021/08/27 07:44:05;;;;;;;0.50;0.50;;;14.10;99.90;;;;;;5052303;28;20209;-68
2021/08/27 07:46:31;;;;;;;0.50;0.50;;;14.10;99.90;;;;;;5052194;28;20209;-67
2021/08/27 07:48:57;;;;;;;40.90;2.05;;;14.00;99.90;;;;;;5033350;28;20209;-69
2021/08/27 07:51:23;;;;;;;1.13;0.90;;;14.00;99.90;;;;;;5032843;28;20205;-69
2021/08/27 07:53:48;;;;;;;0.47;0.47;;;14.00;99.90;;;;;;5033137;28;20570;-68
2021/08/27 07:56:14;;;;;;;1.00;0.93;;;14.00;99.90;;;;;;5051015;28;20205;-67
2021/08/27 07:58:40;;;;;;;0.45;0.45;;;14.00;99.90;;;;;;5051414;28;20216;-67
2021/08/27 08:01:05;;;;;;;0.90;0.90;;;14.00;99.90;;;;;;5026718;28;20324;-69
2021/08/27 08:03:31;;;;;;;0.50;0.50;;;14.00;99.90;;;;;;5036943;28;20332;-67
2021/08/27 08:05:56;;;;;;;0.70;0.70;;;14.00;99.90;;;;;;5041337;28;20263;-70
2021/08/27 08:08:22;;;;;;;0.50;0.50;;;14.00;99.90;;;;;;5051418;28;20212;-71
2021/08/27 08:10:48;;;;;;;0.68;0.68;;;14.00;99.90;;;;;;5051701;28;20201;-69
2021/08/27 08:13:13;;;;;;;0.68;0.68;;;14.00;99.90;;;;;;5032890;28;20575;-68
2021/08/27 08:15:39;;;;;;;1.00;0.80;;;14.10;99.90;;;;;;5051820;28;20383;-67
2021/08/27 08:18:05;;;;;;;1.00;0.90;;;14.10;99.90;;;;;;5033623;28;20548;-67
2021/08/27 08:20:31;;;;;;;0.73;0.73;;;14.10;99.90;;;;;;5051339;28;20271;-67
2021/08/27 08:22:57;;;;;;;11.35;1.23;;;14.10;99.90;;;;;;5051592;28;20288;-67
2021/08/27 08:25:23;;;;;;;0.77;0.77;;;14.10;99.90;;;;;;5051684;28;20241;-69
2021/08/27 08:27:49;;;;;;;0.60;0.60;;;14.10;99.90;;;;;;5052026;28;20201;-67
2021/08/27 08:30:16;;;;;;;0.95;0.90;;;14.10;99.90;;;;;;5051759;28;20543;-67
2021/08/27 08:32:41;;;;;;;0.65;0.65;;;14.10;99.90;;;;;;5051491;28;20678;-68
2021/08/27 08:35:07;;;;;;;0.50;0.50;;;14.10;99.90;;;;;;5051862;28;20288;-68
2021/08/27 08:37:33;;;;;;;0.50;0.50;;;14.20;99.90;;;;;;5051627;28;20300;-67
2021/08/27 08:39:59;;;;;;;0.55;0.55;;;14.40;99.90;;;;;;5051698;28;20268;-67
2021/08/27 08:42:25;;;;;;;0.60;0.60;;;14.40;99.90;;;;;;5051316;28;20217;-69
2021/08/27 08:44:50;;;;;;;0.98;0.98;;;14.40;99.90;;;;;;5032418;28;20223;-67
2021/08/27 08:47:18;;;;;;;0.60;0.60;;;14.30;99.90;;;;;;5051617;28;20201;-68
2021/08/27 08:49:47;;;;;;;0.95;0.93;;;14.20;99.90;;;;;;5033465;28;20258;-69
2021/08/27 08:52:17;;;;;;;0.50;0.50;;;14.30;99.90;;;;;;5051517;28;20583;-69
2021/08/27 08:54:43;;;;;;;0.50;0.50;;;14.40;99.90;;;;;;5051379;28;20217;-69
2021/08/27 08:57:08;;;;;;;0.60;0.60;;;14.40;99.90;;;;;;5051560;28;20348;-73
2021/08/27 08:59:35;;;;;;;1.02;1.02;;;14.40;99.90;;;;;;5050989;28;20209;-71
2021/08/27 09:02:02;;;;;;;0.60;0.60;;;14.50;99.90;;;;;;5045025;28;20198;-71
2021/08/27 09:04:29;;;;;;;0.60;0.60;;;14.50;99.90;;;;;;5050024;28;20636;-71
2021/08/27 09:06:56;;;;;;;0.55;0.55;;;14.60;99.90;;;;;;5051337;28;20252;-71
2021/08/27 09:09:36;;;;;;;0.50;0.50;;;14.80;99.90;;;;;;5051061;28;20285;-71
2021/08/27 09:12:25;;;;;;;0.50;0.50;;;14.70;99.90;;;;;;5032176;28;20193;-71
2021/08/27 09:15:02;;;;;;;0.50;0.50;;;14.70;99.90;;;;;;5051699;28;20538;-70
2021/08/27 09:17:54;;;;;;;0.52;0.52;;;14.60;99.90;;;;;;5054661;28;20212;-72
2021/08/27 09:20:23;;;;;;;0.60;0.60;;;14.60;99.90;;;;;;5052056;28;20563;-72
2021/08/27 09:22:49;;;;;;;0.50;0.50;;;14.40;99.90;;;;;;5055109;28;20205;-72
2021/08/27 09:25:26;;;;;;;0.50;0.50;;;14.40;99.90;;;;;;5055768;28;20590;-73
2021/08/27 09:28:17;;;;;;;0.57;0.57;;;14.40;99.90;;;;;;5055185;28;20193;-73
2021/08/27 09:31:00;;;;;;;0.50;0.50;;;14.40;99.90;;;;;;5036487;28;20213;-69
2021/08/27 09:33:30;;;;;;;0.60;0.60;;;14.40;99.90;;;;;;5054489;28;20266;-71
2021/08/27 09:36:06;;;;;;;0.55;0.55;;;14.40;99.90;;;;;;5056393;28;20205;-71
2021/08/27 09:38:34;;;;;;;0.57;0.57;;;14.50;99.90;;;;;;5055669;28;20209;-71
2021/08/27 09:41:06;;;;;;;0.40;0.40;;;14.50;99.90;;;;;;5054681;28;20202;-71
2021/08/27 09:43:47;;;;;;;0.40;0.40;;;14.50;99.90;;;;;;5054363;28;20202;-71
2021/08/27 09:46:32;;;;;;;0.40;0.40;;;14.50;99.90;;;;;;5054529;28;20201;-71
2021/08/27 09:48:58;;;;;;;0.55;0.55;;;14.50;99.90;;;;;;5042464;28;20572;-71
2021/08/27 09:51:45;;;;;;;0.50;0.50;;;14.50;99.90;;;;;;5050266;28;20605;-72
2021/08/27 09:54:42;;;;;;;0.50;0.50;;;14.50;99.90;;;;;;5054265;28;20710;-71
2021/08/27 09:57:11;;;;;;;0.75;0.75;;;14.60;99.90;;;;;;5054022;28;20206;-71
2021/08/27 09:59:46;;;;;;;0.50;0.50;;;14.60;99.90;;;;;;5035444;28;20209;-71
2021/08/27 10:02:24;;;;;;;0.85;0.85;;;14.60;99.90;;;;;;5053304;28;20334;-71
2021/08/27 10:04:57;;;;;;;0.50;0.50;;;14.50;99.90;;;;;;5032352;28;20238;-71
2021/08/27 10:07:26;;;;;;;0.50;0.50;;;14.50;99.90;;;;;;5033028;28;20542;-71
2021/08/27 10:09:52;;;;;;;0.50;0.50;;;14.50;99.90;;;;;;5033128;28;20202;-71
2021/08/27 10:12:18;;;;;;;0.50;0.50;;;14.60;99.90;;;;;;5034307;28;20264;-72
2021/08/27 10:14:44;;;;;;;1.25;0.85;;;14.80;99.90;;;;;;5034068;28;20545;-71
2021/08/27 10:17:13;;;;;;;0.65;0.65;;;15.00;99.90;;;;;;5032965;28;20210;-71
2021/08/27 10:19:39;;;;;;;0.63;0.63;;;15.10;99.90;;;;;;5031746;28;20316;-67
2021/08/27 10:22:05;;;;;;;0.40;0.40;;;15.10;99.90;;;;;;5033844;28;20209;-71
2021/08/27 10:24:31;;;;;;;0.40;0.40;;;15.20;99.90;;;;;;5033429;28;20733;-72
2021/08/27 10:26:58;;;;;;;0.73;0.57;;;15.20;99.90;;;;;;5033599;28;20294;-73
2021/08/27 10:29:25;;;;;;;0.45;0.45;;;15.20;99.90;;;;;;5033092;28;20742;-71
2021/08/27 10:31:51;;;;;;;0.55;0.55;;;15.30;99.90;;;;;;5034007;28;20202;-72
2021/08/27 10:34:37;;;;;;;0.90;0.90;;;15.40;99.90;;;;;;5031201;28;20214;-71
2021/08/27 10:37:03;;;;;;;0.50;0.50;;;15.50;99.90;;;;;;5033656;28;20224;-70
2021/08/27 10:39:40;;;;;;;0.90;0.75;;;15.60;99.90;;;;;;5031093;28;20289;-70
2021/08/27 10:42:08;;;;;;;0.55;0.55;;;15.70;99.90;;;;;;5033239;28;20267;-71
2021/08/27 10:44:49;;;;;;;0.40;0.40;;;15.70;99.90;;;;;;5033354;28;20652;-71
2021/08/27 10:47:15;;;;;;;0.40;0.40;;;15.60;99.90;;;;;;5032553;28;20198;-71
2021/08/27 10:49:47;;;;;;;0.60;0.60;;;15.50;99.90;;;;;;5033393;28;20680;-71
2021/08/27 10:52:27;;;;;;;0.40;0.40;;;15.50;99.90;;;;;;5033518;28;20198;-69
2021/08/27 10:55:12;;;;;;;0.40;0.40;;;15.40;99.90;;;;;;5033367;28;20292;-69
2021/08/27 10:57:49;;;;;;;0.43;0.43;;;15.30;99.90;;;;;;5033246;28;20335;-70
2021/08/27 11:00:33;;;;;;;0.47;0.47;;;15.30;99.90;;;;;;5033244;28;20229;-69
2021/08/27 11:02:59;;;;;;;0.50;0.50;;;15.40;99.90;;;;;;5033094;28;20601;-72
2021/08/27 11:05:38;;;;;;;0.50;0.50;;;15.40;99.90;;;;;;5047641;28;20306;-69
2021/08/27 11:08:06;;;;;;;0.60;0.60;;;15.50;99.90;;;;;;5034108;28;20213;-69
2021/08/27 11:10:34;;;;;;;0.50;0.50;;;15.50;99.90;;;;;;5052667;28;20202;-69
2021/08/27 11:13:01;;;;;;;0.40;0.40;;;15.50;99.90;;;;;;5052912;28;20201;-68
2021/08/27 11:15:30;;;;;;;0.50;0.50;;;15.60;99.90;;;;;;5034817;28;20343;-69
2021/08/27 11:18:23;;;;;;;0.50;0.50;;;15.60;99.90;;;;;;5052905;28;20267;-69
2021/08/27 11:20:50;;;;;;;0.70;0.70;;;15.60;99.90;;;;;;5033492;28;20202;-69
2021/08/27 11:23:17;;;;;;;0.50;0.50;;;15.70;99.90;;;;;;5052978;28;20250;-69
2021/08/27 11:26:04;;;;;;;0.50;0.50;;;15.60;99.90;;;;;;5052106;28;20216;-69
2021/08/27 11:28:32;;;;;;;0.47;0.47;;;15.70;99.90;;;;;;5045227;28;20620;-71
2021/08/27 11:31:10;;;;;;;0.40;0.40;;;15.70;99.90;;;;;;5049809;28;20247;-76
2021/08/27 11:33:43;;;;;;;0.40;0.40;;;15.70;99.90;;;;;;5053197;28;20244;-72
2021/08/27 11:36:09;;;;;;;1.98;1.10;;;15.80;99.90;;;;;;5051955;28;20209;-73
2021/08/27 11:38:36;;;;;;;1.67;0.75;;;15.80;99.90;;;;;;5033615;28;20648;-71
2021/08/27 11:41:02;;;;;;;0.50;0.50;;;15.80;99.90;;;;;;5052009;28;20702;-71
2021/08/27 11:43:35;;;;;;;0.95;0.80;;;15.90;99.90;;;;;;5052528;28;20328;-72
2021/08/27 11:46:04;;;;;;;0.40;0.40;;;15.80;99.90;;;;;;5052362;28;20660;-73
2021/08/27 11:48:37;;;;;;;0.60;0.60;;;15.90;99.90;;;;;;5051786;28;20297;-72
2021/08/27 11:51:06;;;;;;;0.52;0.52;;;15.90;99.90;;;;;;5051851;28;20189;-73
2021/08/27 11:53:32;;;;;;;0.60;0.60;;;15.80;99.90;;;;;;5052103;28;20338;-73
2021/08/27 11:55:58;;;;;;;0.40;0.40;;;15.80;99.90;;;;;;5051804;28;20375;-73
2021/08/27 11:58:25;;;;;;;0.30;0.30;;;15.90;99.90;;;;;;5033710;28;20208;-74
2021/08/27 12:00:51;;;;;;;0.47;0.47;;;16.10;99.90;;;;;;5052000;28;20200;-75
2021/08/27 12:03:17;;;;;;;0.95;0.75;;;16.10;99.90;;;;;;5033800;28;20216;-73
2021/08/27 12:05:43;;;;;;;0.47;0.47;;;16.10;99.90;;;;;;5033643;28;20225;-73
2021/08/27 12:08:13;;;;;;;0.40;0.40;;;16.30;99.90;;;;;;5052351;28;20212;-72
2021/08/27 12:10:40;;;;;;;0.60;0.60;;;16.30;99.90;;;;;;5034091;28;20287;-71
2021/08/27 12:13:11;;;;;;;0.50;0.50;;;16.20;99.90;;;;;;5034039;28;20190;-70
2021/08/27 12:15:40;;;;;;;0.45;0.45;;;16.10;99.90;;;;;;5034181;28;20213;-71
2021/08/27 12:18:10;;;;;;;0.50;0.50;;;16.10;99.90;;;;;;5052013;28;20193;-70
2021/08/27 12:20:39;;;;;;;0.40;0.40;;;16.20;99.90;;;;;;5051401;28;20640;-72
2021/08/27 12:23:14;;;;;;;0.50;0.50;;;16.20;99.90;;;;;;5051998;28;20193;-70
2021/08/27 12:25:43;;;;;;;0.55;0.55;;;16.10;99.90;;;;;;5051297;28;20305;-70
2021/08/27 12:28:11;;;;;;;0.40;0.40;;;16.20;99.90;;;;;;5034142;28;20205;-71
2021/08/27 12:30:51;;;;;;;0.50;0.50;;;16.30;99.90;;;;;;5051492;28;20624;-75
2021/08/27 12:33:17;;;;;;;0.85;0.85;;;16.60;99.90;;;;;;5033763;28;20197;-71
2021/08/27 12:35:44;;;;;;;0.40;0.40;;;16.70;99.90;;;;;;5051384;28;20194;-68
2021/08/27 12:38:13;;;;;;;0.40;0.40;;;16.90;99.90;;;;;;5051700;28;20213;-68
2021/08/27 12:40:39;;;;;;;0.40;0.40;;;16.90;99.90;;;;;;5050082;28;20204;-70
2021/08/27 12:43:05;;;;;;;0.40;0.40;;;16.70;99.90;;;;;;5034080;28;20563;-70
2021/08/27 12:45:41;;;;;;;0.40;0.40;;;16.60;99.90;;;;;;5051308;28;20217;-70
2021/08/27 12:48:07;;;;;;;0.40;0.40;;;16.50;99.90;;;;;;5032717;28;20215;-71
2021/08/27 12:50:44;;;;;;;0.30;0.30;;;16.50;99.90;;;;;;5053785;28;20202;-70
2021/08/27 12:53:09;;;;;;;0.40;0.40;;;16.70;99.90;;;;;;5071249;28;20300;-71
2021/08/27 12:55:35;;;;;;;0.40;0.40;;;16.80;99.90;;;;;;5055694;28;20292;-71
2021/08/27 12:58:01;;;;;;;0.50;0.50;;;16.90;99.90;;;;;;5037587;28;20239;-70